createdAt,value
2023-03-03T00:01:50.230Z,12.07
2023-03-03T00:04:16.862Z,11.82
2023-03-03T00:06:45.376Z,11.93
2023-03-03T00:09:11.991Z,12.35
2023-03-03T00:11:38.668Z,11.38
2023-03-03T00:14:23.065Z,12.50
2023-03-03T00:16:50.162Z,11.98
2023-03-03T00:19:19.605Z,11.98
2023-03-03T00:21:48.110Z,11.25
2023-03-03T00:24:14.734Z,11.07
2023-03-03T00:26:47.472Z,12.15
2023-03-03T00:29:40.762Z,12.32
2023-03-03T00:32:24.029Z,11.18
2023-03-03T00:34:53.080Z,11.10
2023-03-03T00:37:25.411Z,11.35
2023-03-03T00:39:52.045Z,11.55
2023-03-03T00:42:19.369Z,11.40
2023-03-03T00:44:56.981Z,12.25
2023-03-03T00:47:32.526Z,10.60
2023-03-03T00:50:08.147Z,10.82
2023-03-03T00:52:40.568Z,12.25
2023-03-03T00:55:08.368Z,11.98
2023-03-03T00:57:35.142Z,12.13
2023-03-03T01:00:01.916Z,11.85
2023-03-03T01:02:28.739Z,11.18
2023-03-03T01:04:58.276Z,11.02
2023-03-03T01:07:25.532Z,11.93
2023-03-03T01:09:52.370Z,10.85
2023-03-03T01:12:19.014Z,11.45
2023-03-03T01:14:46.137Z,10.35
2023-03-03T01:17:12.784Z,10.40
2023-03-03T01:19:39.393Z,12.07
2023-03-03T01:22:06.324Z,11.60
2023-03-03T01:24:33.468Z,11.60
2023-03-03T01:27:00.319Z,11.05
2023-03-03T01:29:27.179Z,11.25
2023-03-03T01:31:54.829Z,11.60
2023-03-03T01:34:21.899Z,10.10
2023-03-03T01:36:48.663Z,10.68
2023-03-03T01:39:15.378Z,10.57
2023-03-03T01:41:42.089Z,11.50
2023-03-03T01:44:14.784Z,11.55
2023-03-03T01:47:14.428Z,11.73
2023-03-03T01:49:49.819Z,12.05
2023-03-03T01:52:28.005Z,11.93
2023-03-03T01:55:00.410Z,11.80
2023-03-03T01:57:33.136Z,13.25
2023-03-03T02:00:02.652Z,12.40
2023-03-03T02:02:30.047Z,13.25
2023-03-03T02:04:56.715Z,12.95
2023-03-03T02:07:25.843Z,12.07
2023-03-03T02:10:05.025Z,13.45
2023-03-03T02:12:37.901Z,13.13
2023-03-03T02:15:28.217Z,13.60
2023-03-03T02:18:03.375Z,12.73
2023-03-03T02:24:33.552Z,12.48
2023-03-03T02:29:39.636Z,12.25
2023-03-03T02:32:06.300Z,12.63
2023-03-03T02:34:46.346Z,11.85
2023-03-03T02:37:13.039Z,12.85
2023-03-03T02:39:39.665Z,12.85
2023-03-03T02:42:22.193Z,13.35
2023-03-03T02:44:49.336Z,12.70
2023-03-03T02:47:16.039Z,12.52
2023-03-03T02:49:43.392Z,11.52
2023-03-03T02:52:11.379Z,11.68
2023-03-03T02:54:38.553Z,12.20
2023-03-03T02:57:06.207Z,12.75
2023-03-03T03:02:12.537Z,11.02
2023-03-03T03:04:39.255Z,12.55
2023-03-03T03:07:06.023Z,13.07
2023-03-03T03:09:32.682Z,12.60
2023-03-03T03:12:02.499Z,11.93
2023-03-03T03:14:29.467Z,12.88
2023-03-03T03:16:56.287Z,13.00
2023-03-03T03:19:23.038Z,13.93
2023-03-03T03:21:49.707Z,12.93
2023-03-03T03:24:16.521Z,13.73
2023-03-03T03:26:43.144Z,14.40
2023-03-03T03:29:10.460Z,13.77
2023-03-03T03:31:38.010Z,14.85
2023-03-03T03:34:04.675Z,15.05
2023-03-03T03:36:31.313Z,14.23
2023-03-03T03:38:57.975Z,14.23
2023-03-03T03:41:24.636Z,13.90
2023-03-03T03:43:51.600Z,14.52
2023-03-03T03:46:18.298Z,13.85
2023-03-03T03:48:45.669Z,13.20
2023-03-03T03:51:12.883Z,13.57
2023-03-03T03:53:39.657Z,12.43
2023-03-03T03:56:06.684Z,13.27
2023-03-03T03:58:33.489Z,14.00
2023-03-03T04:01:07.997Z,12.35
2023-03-03T04:03:35.333Z,12.88
2023-03-03T04:06:01.978Z,13.27
2023-03-03T04:08:28.705Z,12.75
2023-03-03T04:10:55.365Z,12.60
2023-03-03T04:13:22.026Z,12.40
2023-03-03T04:15:48.917Z,12.07
2023-03-03T04:18:15.619Z,12.60
2023-03-03T04:20:42.388Z,12.85
2023-03-03T04:23:09.036Z,11.98
2023-03-03T04:25:35.712Z,13.52
2023-03-03T04:28:03.992Z,13.38
2023-03-03T04:30:32.580Z,12.30
2023-03-03T04:32:59.217Z,13.52
2023-03-03T04:35:25.895Z,13.93
2023-03-03T04:37:52.625Z,14.18
2023-03-03T04:40:19.379Z,15.48
2023-03-03T04:42:46.358Z,14.32
2023-03-03T04:45:13.144Z,15.27
2023-03-03T04:47:40.228Z,14.30
2023-03-03T04:50:08.115Z,14.38
2023-03-03T04:52:34.778Z,14.70
2023-03-03T04:55:01.426Z,15.13
2023-03-03T04:57:28.071Z,14.55
2023-03-03T04:59:54.899Z,13.32
2023-03-03T05:02:21.648Z,13.77
2023-03-03T05:04:48.424Z,13.65
2023-03-03T05:07:15.159Z,14.82
2023-03-03T05:09:41.776Z,14.65
2023-03-03T05:12:08.502Z,14.10
2023-03-03T05:14:35.197Z,13.95
2023-03-03T05:17:03.563Z,14.95
2023-03-03T05:19:30.307Z,14.73
2023-03-03T05:21:57.757Z,14.90
2023-03-03T05:24:24.562Z,15.63
2023-03-03T05:26:51.281Z,14.65
2023-03-03T05:29:17.955Z,14.85
2023-03-03T05:31:45.717Z,15.05
2023-03-03T05:34:12.527Z,15.32
2023-03-03T05:36:39.317Z,14.00
2023-03-03T05:39:06.069Z,14.65
2023-03-03T05:41:32.720Z,15.13
2023-03-03T05:43:59.395Z,15.48
2023-03-03T05:46:26.071Z,14.68
2023-03-03T05:48:52.724Z,16.02
2023-03-03T05:51:19.557Z,16.42
2023-03-03T05:53:46.186Z,15.77
2023-03-03T05:56:12.810Z,15.50
2023-03-03T05:58:39.508Z,16.00
2023-03-03T06:01:06.204Z,15.15
2023-03-03T06:03:33.433Z,15.02
2023-03-03T06:06:00.234Z,15.48
2023-03-03T06:08:26.864Z,15.43
2023-03-03T06:10:53.489Z,15.45
2023-03-03T06:13:20.132Z,14.93
2023-03-03T06:15:46.805Z,15.48
2023-03-03T06:18:13.484Z,16.08
2023-03-03T06:20:40.239Z,16.17
2023-03-03T06:23:06.970Z,15.57
2023-03-03T06:25:35.799Z,15.48
2023-03-03T06:28:04.021Z,14.98
2023-03-03T06:30:30.818Z,14.68
2023-03-03T06:32:57.609Z,15.30
2023-03-03T06:35:24.524Z,14.02
2023-03-03T06:37:51.760Z,14.95
2023-03-03T06:40:18.562Z,15.25
2023-03-03T06:42:45.230Z,15.40
2023-03-03T06:45:12.417Z,15.95
2023-03-03T06:47:39.083Z,15.65
2023-03-03T06:50:06.405Z,14.90
2023-03-03T06:52:33.056Z,15.02
2023-03-03T06:55:02.337Z,15.57
2023-03-03T06:57:31.747Z,15.77
2023-03-03T07:00:20.831Z,17.05
2023-03-03T07:02:53.854Z,17.23
2023-03-03T07:05:21.408Z,16.60
2023-03-03T07:07:48.167Z,16.13
2023-03-03T07:10:26.774Z,17.02
2023-03-03T07:12:54.520Z,15.32
2023-03-03T07:15:34.814Z,17.00
2023-03-03T07:18:02.641Z,15.98
2023-03-03T07:20:41.841Z,17.45
2023-03-03T07:23:23.377Z,15.98
2023-03-03T07:25:51.144Z,16.15
2023-03-03T07:28:25.220Z,16.63
2023-03-03T07:30:54.074Z,12.40
2023-03-03T07:33:20.744Z,17.02
2023-03-03T07:35:47.675Z,17.05
2023-03-03T07:38:14.320Z,16.73
2023-03-03T07:40:49.663Z,15.80
2023-03-03T07:43:43.689Z,17.42
2023-03-03T07:46:10.311Z,17.15
2023-03-03T07:48:42.953Z,16.92
2023-03-03T07:51:37.258Z,17.20
2023-03-03T07:54:28.643Z,17.55
2023-03-03T07:57:08.245Z,17.40
2023-03-03T07:59:37.165Z,17.75
2023-03-03T08:02:17.091Z,16.90
2023-03-03T08:04:52.664Z,16.38
2023-03-03T08:07:22.483Z,16.80
2023-03-03T08:10:02.290Z,16.33
2023-03-03T08:12:42.135Z,16.60
2023-03-03T08:15:25.093Z,15.40
2023-03-03T08:17:54.452Z,16.13
2023-03-03T08:20:44.551Z,16.48
2023-03-03T08:23:12.856Z,17.02
2023-03-03T08:25:40.775Z,15.57
2023-03-03T08:28:07.418Z,15.88
2023-03-03T08:30:34.314Z,15.82
2023-03-03T08:33:01.476Z,15.82
2023-03-03T08:35:28.399Z,15.60
2023-03-03T08:37:55.346Z,16.08
2023-03-03T08:40:22.087Z,16.05
2023-03-03T08:42:48.948Z,15.93
2023-03-03T08:45:15.845Z,15.05
2023-03-03T08:47:43.306Z,15.75
2023-03-03T08:50:11.075Z,16.23
2023-03-03T08:52:37.786Z,14.80
2023-03-03T08:55:05.892Z,14.00
2023-03-03T08:57:33.677Z,13.88
2023-03-03T09:00:00.619Z,13.45
2023-03-03T09:02:27.340Z,13.90
2023-03-03T09:04:53.996Z,13.65
2023-03-03T09:07:20.684Z,12.40
2023-03-03T09:09:47.452Z,12.13
2023-03-03T09:12:29.819Z,11.63
2023-03-03T09:15:00.359Z,11.80
2023-03-03T09:17:34.407Z,12.73
2023-03-03T09:20:22.207Z,11.77
2023-03-03T09:22:50.652Z,11.63
2023-03-03T09:25:33.659Z,10.75
2023-03-03T09:28:04.774Z,10.50
2023-03-03T09:30:40.084Z,9.32
2023-03-03T09:33:39.134Z,9.32
2023-03-03T09:36:35.570Z,9.73
2023-03-03T09:39:24.114Z,10.40
2023-03-03T09:42:16.329Z,9.93
2023-03-03T09:45:18.092Z,8.77
2023-03-03T09:47:48.012Z,10.02
2023-03-03T09:50:56.215Z,8.68
2023-03-03T09:53:44.125Z,9.52
2023-03-03T09:56:13.378Z,9.00
2023-03-03T09:59:01.170Z,8.10
2023-03-03T10:01:49.216Z,9.25
2023-03-03T10:04:37.916Z,8.38
2023-03-03T10:07:19.176Z,8.15
2023-03-03T10:10:13.773Z,8.23
2023-03-03T10:13:00.636Z,7.65
2023-03-03T10:15:40.555Z,7.65
2023-03-03T10:18:24.581Z,7.25
2023-03-03T10:21:37.479Z,7.60
2023-03-03T10:24:17.295Z,7.78
2023-03-03T10:27:14.602Z,9.15
2023-03-03T10:30:24.286Z,9.20
2023-03-03T10:33:33.120Z,11.45
2023-03-03T10:36:11.983Z,10.30
2023-03-03T10:38:59.881Z,10.07
2023-03-03T10:42:07.831Z,9.82
2023-03-03T10:44:46.106Z,10.45
2023-03-03T10:47:46.719Z,10.00
2023-03-03T10:50:35.783Z,9.63
2023-03-03T10:53:21.148Z,9.57
2023-03-03T10:56:14.611Z,9.85
2023-03-03T10:59:01.324Z,9.38
2023-03-03T11:01:59.139Z,9.15
2023-03-03T11:04:44.327Z,9.23
2023-03-03T11:10:21.437Z,9.30
2023-03-03T11:13:09.132Z,8.98
2023-03-03T11:15:47.328Z,9.27
2023-03-03T11:18:22.297Z,8.23
2023-03-03T11:21:06.028Z,9.82
2023-03-03T11:23:41.400Z,10.63
2023-03-03T11:26:15.708Z,9.30
2023-03-03T11:29:04.470Z,10.02
2023-03-03T11:31:38.477Z,8.85
2023-03-03T11:34:21.123Z,9.18
2023-03-03T11:37:01.961Z,9.35
2023-03-03T11:39:28.579Z,9.32
2023-03-03T11:42:17.280Z,8.93
2023-03-03T11:45:00.548Z,9.70
2023-03-03T11:47:39.285Z,8.80
2023-03-03T11:50:17.329Z,9.15
2023-03-03T11:52:47.848Z,9.70
2023-03-03T11:55:37.861Z,9.48
2023-03-03T11:58:25.127Z,8.68
2023-03-03T12:01:03.178Z,8.93
2023-03-03T12:03:45.987Z,7.93
2023-03-03T12:06:27.796Z,7.25
2023-03-03T12:09:21.978Z,8.55
2023-03-03T12:12:08.828Z,7.93
2023-03-03T12:15:03.732Z,8.48
2023-03-03T12:17:41.210Z,9.63
2023-03-03T12:20:22.782Z,7.63
2023-03-03T12:23:06.539Z,9.18
2023-03-03T12:25:41.136Z,6.40
2023-03-03T12:28:21.585Z,8.80
2023-03-03T12:31:16.062Z,8.30
2023-03-03T12:33:58.737Z,10.82
2023-03-03T12:37:12.770Z,8.63
2023-03-03T12:39:48.211Z,8.10
2023-03-03T12:42:31.874Z,8.10
2023-03-03T12:45:21.680Z,8.98
2023-03-03T12:47:58.362Z,8.80
2023-03-03T12:50:34.497Z,8.35
2023-03-03T12:53:13.027Z,8.45
2023-03-03T12:55:53.689Z,8.90
2023-03-03T12:58:33.970Z,8.32
2023-03-03T13:01:30.497Z,8.60
2023-03-03T13:04:27.755Z,8.43
2023-03-03T13:07:10.283Z,9.30
2023-03-03T13:10:14.492Z,8.15
2023-03-03T13:12:50.396Z,8.30
2023-03-03T13:15:32.850Z,9.05
2023-03-03T13:18:24.933Z,8.88
2023-03-03T13:21:14.236Z,9.02
2023-03-03T13:23:55.813Z,8.45
2023-03-03T13:26:45.168Z,9.10
2023-03-03T13:29:30.431Z,9.38
2023-03-03T13:34:43.325Z,9.50
2023-03-03T13:37:16.024Z,9.25
2023-03-03T13:40:01.505Z,8.98
2023-03-03T13:42:43.329Z,9.45
2023-03-03T13:45:27.523Z,9.30
2023-03-03T13:48:32.145Z,8.88
2023-03-03T13:51:08.637Z,8.70
2023-03-03T13:53:59.648Z,9.52
2023-03-03T13:56:44.486Z,9.70
2023-03-03T13:59:26.052Z,9.07
2023-03-03T14:02:17.904Z,9.60
2023-03-03T14:04:57.857Z,9.20
2023-03-03T14:08:01.781Z,9.27
2023-03-03T14:10:49.021Z,9.57
2023-03-03T14:13:47.183Z,9.73
2023-03-03T14:16:19.541Z,9.45
2023-03-03T14:19:15.070Z,9.18
2023-03-03T14:22:15.574Z,8.70
2023-03-03T14:25:06.603Z,9.45
2023-03-03T14:27:48.123Z,8.77
2023-03-03T14:30:27.029Z,10.15
2023-03-03T14:33:18.761Z,9.30
2023-03-03T14:36:00.422Z,9.57
2023-03-03T14:38:33.185Z,9.35
2023-03-03T14:41:12.077Z,9.43
2023-03-03T14:43:41.039Z,10.00
2023-03-03T14:46:36.776Z,9.50
2023-03-03T14:49:15.082Z,9.48
2023-03-03T14:51:47.993Z,9.07
2023-03-03T14:54:24.784Z,9.40
2023-03-03T14:57:07.176Z,8.95
2023-03-03T14:59:33.988Z,9.48
2023-03-03T15:02:18.788Z,8.80
2023-03-03T15:04:47.711Z,9.27
2023-03-03T15:07:23.321Z,8.38
2023-03-03T15:09:50.508Z,8.23
2023-03-03T15:12:44.606Z,7.75
2023-03-03T15:15:22.446Z,7.80
2023-03-03T15:18:13.538Z,8.50
2023-03-03T15:21:00.761Z,7.88
2023-03-03T15:23:39.373Z,8.05
2023-03-03T15:26:30.052Z,8.43
2023-03-03T15:29:17.600Z,7.90
2023-03-03T15:32:26.171Z,7.85
2023-03-03T15:35:00.099Z,7.32
2023-03-03T15:37:39.490Z,7.70
2023-03-03T15:40:14.936Z,6.78
2023-03-03T15:43:13.491Z,9.45
2023-03-03T15:45:46.754Z,8.13
2023-03-03T15:48:34.527Z,6.50
2023-03-03T15:51:10.377Z,7.38
2023-03-03T15:53:52.603Z,7.07
2023-03-03T15:56:58.424Z,7.68
2023-03-03T16:02:06.781Z,6.28
2023-03-03T16:04:37.658Z,7.35
2023-03-03T16:07:41.554Z,6.63
2023-03-03T16:10:18.751Z,6.72
2023-03-03T16:12:45.425Z,6.53
2023-03-03T16:15:12.074Z,6.30
2023-03-03T16:18:01.982Z,6.63
2023-03-03T16:20:31.269Z,6.40
2023-03-03T16:23:22.552Z,7.00
2023-03-03T16:26:06.279Z,6.45
2023-03-03T16:28:43.938Z,6.47
2023-03-03T16:31:22.468Z,6.47
2023-03-03T16:33:54.878Z,7.10
2023-03-03T16:37:01.673Z,7.03
2023-03-03T16:39:37.031Z,7.95
2023-03-03T16:42:29.370Z,7.38
2023-03-03T16:45:21.823Z,7.25
2023-03-03T16:48:10.405Z,7.57
2023-03-03T16:51:04.959Z,7.45
2023-03-03T16:53:49.223Z,7.03
2023-03-03T16:56:28.786Z,7.80
2023-03-03T16:59:47.138Z,8.00
2023-03-03T17:02:34.986Z,8.68
2023-03-03T17:05:14.624Z,8.45
2023-03-03T17:07:49.459Z,8.82
2023-03-03T17:12:54.444Z,7.95
2023-03-03T17:15:55.195Z,8.52
2023-03-03T17:18:45.906Z,7.68
2023-03-03T17:21:50.090Z,8.35
2023-03-03T17:24:31.946Z,7.63
2023-03-03T17:27:32.237Z,7.47
2023-03-03T17:30:13.054Z,6.55
2023-03-03T17:33:23.355Z,6.82
2023-03-03T17:36:09.051Z,7.05
2023-03-03T17:38:44.404Z,7.60
2023-03-03T17:41:25.985Z,7.25
2023-03-03T17:44:25.345Z,7.10
2023-03-03T17:46:59.039Z,7.05
2023-03-03T17:52:44.114Z,6.72
2023-03-03T17:55:28.604Z,6.97
2023-03-03T17:58:07.164Z,7.38
2023-03-03T18:00:54.091Z,7.40
2023-03-03T18:03:32.938Z,6.40
2023-03-03T18:06:14.986Z,6.88
2023-03-03T18:09:14.287Z,8.13
2023-03-03T18:12:00.922Z,7.50
2023-03-03T18:14:49.231Z,7.45
2023-03-03T18:17:37.643Z,7.57
2023-03-03T18:20:47.510Z,7.50
2023-03-03T18:23:41.890Z,7.35
2023-03-03T18:26:31.328Z,6.85
2023-03-03T18:29:13.868Z,6.60
2023-03-03T18:32:05.100Z,7.75
2023-03-03T18:34:41.777Z,7.18
2023-03-03T18:37:10.934Z,7.50
2023-03-03T18:39:46.670Z,6.63
2023-03-03T18:42:16.416Z,7.00
2023-03-03T18:44:47.989Z,7.40
2023-03-03T18:47:17.673Z,7.43
2023-03-03T18:49:47.105Z,7.57
2023-03-03T18:52:19.924Z,7.35
2023-03-03T18:55:09.958Z,7.70
2023-03-03T18:57:37.703Z,7.07
2023-03-03T19:00:24.538Z,7.38
2023-03-03T19:02:53.993Z,7.55
2023-03-03T19:05:28.775Z,7.47
2023-03-03T19:10:21.905Z,7.90
2023-03-03T19:12:52.833Z,7.07
2023-03-03T19:15:31.625Z,7.25
2023-03-03T19:18:18.890Z,7.05
2023-03-03T19:20:51.509Z,7.35
2023-03-03T19:23:26.117Z,7.93
2023-03-03T19:26:20.945Z,7.35
2023-03-03T19:29:12.216Z,7.22
2023-03-03T19:31:50.451Z,7.22
2023-03-03T19:34:32.786Z,8.65
2023-03-03T19:37:08.472Z,7.45
2023-03-03T19:40:03.457Z,7.20
2023-03-03T19:42:30.088Z,6.85
2023-03-03T19:45:19.614Z,6.95
2023-03-03T19:48:36.758Z,7.28
2023-03-03T19:51:20.867Z,6.55
2023-03-03T19:53:53.375Z,6.93
2023-03-03T19:58:56.706Z,6.28
2023-03-03T20:02:08.133Z,6.18
2023-03-03T20:04:46.740Z,6.55
2023-03-03T20:07:34.937Z,6.35
2023-03-03T20:12:13.314Z,6.07
2023-03-03T20:14:46.887Z,6.07
2023-03-03T20:17:43.356Z,6.70
2023-03-03T20:20:32.554Z,6.72
2023-03-03T20:23:17.909Z,6.28
2023-03-03T20:26:07.612Z,7.13
2023-03-03T20:28:46.542Z,5.40
2023-03-03T20:31:22.041Z,6.25
2023-03-03T20:33:52.424Z,6.25
2023-03-03T20:37:00.574Z,5.70
2023-03-03T20:39:38.937Z,6.38
2023-03-03T20:42:26.982Z,6.43
2023-03-03T20:45:22.151Z,6.85
2023-03-03T20:48:11.687Z,5.95
2023-03-03T20:50:53.991Z,6.32
2023-03-03T20:53:34.870Z,6.05
2023-03-03T20:56:25.667Z,6.28
2023-03-03T20:59:32.067Z,6.88
2023-03-03T21:02:29.509Z,6.72
2023-03-03T21:05:15.927Z,6.47
2023-03-03T21:08:03.162Z,6.93
2023-03-03T21:10:35.750Z,6.30
2023-03-03T21:13:25.628Z,6.32
2023-03-03T21:16:01.900Z,5.72
2023-03-03T21:18:28.662Z,5.57
2023-03-03T21:20:55.421Z,6.72
2023-03-03T21:23:23.132Z,6.50
2023-03-03T21:25:54.837Z,6.10
2023-03-03T21:31:14.162Z,6.68
2023-03-03T21:33:52.481Z,6.82
2023-03-03T21:36:46.387Z,6.35
2023-03-03T21:39:29.490Z,5.60
2023-03-03T21:41:58.154Z,6.45
2023-03-03T21:44:44.865Z,6.15
2023-03-03T21:47:14.885Z,6.45
2023-03-03T21:49:46.782Z,6.35
2023-03-03T21:52:16.502Z,5.72
2023-03-03T21:54:44.603Z,7.13
2023-03-03T21:57:11.641Z,5.85
2023-03-03T21:59:38.591Z,5.50
2023-03-03T22:02:06.089Z,6.13
2023-03-03T22:04:34.436Z,6.57
2023-03-03T22:07:01.327Z,6.00
2023-03-03T22:09:28.051Z,5.88
2023-03-03T22:11:54.699Z,6.57
2023-03-03T22:14:21.417Z,6.50
2023-03-03T22:16:48.046Z,5.63
2023-03-03T22:19:14.754Z,5.55
2023-03-03T22:21:41.410Z,5.60
2023-03-03T22:24:08.878Z,5.80
2023-03-03T22:26:36.024Z,6.38
2023-03-03T22:29:02.732Z,6.63
2023-03-03T22:31:29.391Z,5.85
2023-03-03T22:33:56.175Z,6.25
2023-03-03T22:36:23.482Z,5.60
2023-03-03T22:38:50.265Z,5.57
2023-03-03T22:41:17.672Z,5.90
2023-03-03T22:43:44.566Z,6.10
2023-03-03T22:46:11.699Z,6.18
2023-03-03T22:48:38.721Z,6.60
2023-03-03T22:51:05.969Z,5.78
2023-03-03T22:53:32.595Z,7.07
2023-03-03T22:55:59.343Z,7.30
2023-03-03T22:58:26.286Z,5.50
2023-03-03T23:00:54.129Z,6.30
2023-03-03T23:03:21.317Z,6.30
2023-03-03T23:05:51.332Z,6.70
2023-03-03T23:08:18.979Z,5.85
2023-03-03T23:10:46.149Z,5.95
2023-03-03T23:15:51.318Z,6.40
2023-03-03T23:18:17.966Z,5.93
2023-03-03T23:20:46.146Z,6.10
2023-03-03T23:23:13.066Z,6.20
2023-03-03T23:25:39.877Z,6.50
2023-03-03T23:30:46.437Z,6.10
2023-03-03T23:33:13.197Z,6.03
2023-03-03T23:35:40.118Z,5.95
2023-03-03T23:38:06.847Z,6.25
2023-03-03T23:42:46.943Z,5.82
2023-03-03T23:45:14.287Z,5.72
2023-03-03T23:47:40.981Z,5.90
2023-03-03T23:50:09.180Z,5.88
2023-03-03T23:52:36.490Z,6.03
2023-03-03T23:55:04.253Z,6.10
2023-03-03T23:57:30.931Z,6.57
2023-03-03T23:59:57.571Z,5.97
